createdAt,value
2023-03-21T00:01:54.068Z,39.40
2023-03-21T00:04:27.185Z,44.60
2023-03-21T00:06:55.787Z,46.43
2023-03-21T00:09:23.474Z,48.57
2023-03-21T00:11:50.725Z,58.57
2023-03-21T00:14:20.785Z,48.60
2023-03-21T00:16:52.022Z,49.63
2023-03-21T00:19:20.877Z,58.10
2023-03-21T00:22:08.755Z,57.90
2023-03-21T00:24:37.361Z,53.20
2023-03-21T00:29:52.111Z,61.83
2023-03-21T00:32:21.368Z,49.57
2023-03-21T00:35:02.345Z,60.90
2023-03-21T00:37:37.257Z,43.37
2023-03-21T00:40:16.305Z,94.33
2023-03-21T00:42:50.959Z,59.07
2023-03-21T00:45:19.234Z,49.40
2023-03-21T00:47:46.538Z,44.43
2023-03-21T00:50:13.947Z,56.03
2023-03-21T00:52:41.665Z,70.87
2023-03-21T00:55:17.348Z,52.10
2023-03-21T00:57:47.509Z,52.87
2023-03-21T01:00:20.116Z,64.43
2023-03-21T01:03:14.129Z,64.73
2023-03-21T01:06:02.064Z,66.33
2023-03-21T01:08:41.456Z,57.97
2023-03-21T01:11:20.841Z,65.10
2023-03-21T01:13:54.742Z,61.10
2023-03-21T01:16:27.168Z,56.47
2023-03-21T01:18:54.496Z,53.67
2023-03-21T01:21:21.728Z,77.47
2023-03-21T01:23:49.049Z,77.37
2023-03-21T01:26:16.569Z,60.50
2023-03-21T01:28:45.714Z,63.73
2023-03-21T01:31:15.335Z,76.37
2023-03-21T01:33:43.719Z,102.37
2023-03-21T01:36:17.594Z,67.57
2023-03-21T01:38:46.193Z,76.13
2023-03-21T01:41:46.998Z,66.67
2023-03-21T01:44:19.546Z,76.67
2023-03-21T01:47:07.390Z,61.23
2023-03-21T01:49:49.516Z,73.43
2023-03-21T01:52:37.815Z,64.07
2023-03-21T01:55:15.304Z,81.90
2023-03-21T01:58:05.908Z,70.00
2023-03-21T02:00:41.790Z,59.03
2023-03-21T02:03:34.976Z,77.50
2023-03-21T02:06:22.451Z,65.13
2023-03-21T02:08:55.402Z,70.67
2023-03-21T02:11:23.794Z,98.03
2023-03-21T02:13:55.848Z,94.00
2023-03-21T02:16:50.643Z,79.90
2023-03-21T02:19:32.783Z,88.87
2023-03-21T02:22:35.350Z,69.90
2023-03-21T02:25:21.804Z,91.10
2023-03-21T02:28:15.272Z,77.03
2023-03-21T02:31:10.732Z,81.00
2023-03-21T02:33:49.896Z,85.03
2023-03-21T02:36:34.032Z,91.67
2023-03-21T02:39:11.525Z,85.53
2023-03-21T02:41:54.726Z,83.33
2023-03-21T02:45:01.728Z,77.30
2023-03-21T02:47:41.848Z,75.93
2023-03-21T02:50:37.353Z,90.83
2023-03-21T02:53:08.628Z,61.73
2023-03-21T02:55:38.985Z,97.40
2023-03-21T02:58:13.178Z,104.50
2023-03-21T03:00:48.497Z,88.80
2023-03-21T03:03:33.875Z,93.67
2023-03-21T03:06:07.724Z,80.80
2023-03-21T03:09:14.765Z,86.93
2023-03-21T03:11:44.547Z,88.20
2023-03-21T03:14:53.006Z,131.00
2023-03-21T03:17:47.356Z,99.73
2023-03-21T03:20:24.668Z,89.73
2023-03-21T03:23:20.881Z,94.57
2023-03-21T03:26:17.527Z,120.07
2023-03-21T03:28:54.887Z,107.30
2023-03-21T03:31:33.385Z,101.00
2023-03-21T03:34:07.128Z,95.07
2023-03-21T03:36:48.013Z,101.50
2023-03-21T03:39:18.702Z,78.30
2023-03-21T03:42:27.921Z,122.83
2023-03-21T03:45:05.485Z,121.07
2023-03-21T03:47:55.918Z,116.47
2023-03-21T03:50:32.560Z,123.60
2023-03-21T03:53:22.835Z,97.20
2023-03-21T03:55:55.728Z,84.87
2023-03-21T03:58:30.989Z,95.13
2023-03-21T04:01:03.631Z,87.00
2023-03-21T04:03:46.076Z,81.00
2023-03-21T04:06:16.905Z,89.87
2023-03-21T04:08:45.271Z,118.73
2023-03-21T04:11:15.775Z,82.27
2023-03-21T04:13:47.336Z,138.83
2023-03-21T04:16:20.461Z,112.57
2023-03-21T04:18:49.014Z,145.93
2023-03-21T04:21:19.544Z,117.07
2023-03-21T04:23:46.812Z,138.10
2023-03-21T04:26:14.585Z,149.07
2023-03-21T04:29:00.776Z,110.20
2023-03-21T04:31:49.853Z,135.23
2023-03-21T04:34:17.737Z,147.53
2023-03-21T04:36:53.929Z,148.13
2023-03-21T04:39:21.915Z,134.33
2023-03-21T04:41:50.514Z,157.27
2023-03-21T04:44:18.468Z,220.37
2023-03-21T04:46:46.723Z,138.23
2023-03-21T04:49:13.968Z,141.73
2023-03-21T04:51:45.092Z,118.37
2023-03-21T04:56:42.770Z,143.10
2023-03-21T04:59:13.436Z,141.83
2023-03-21T05:01:43.816Z,104.80
2023-03-21T05:04:14.166Z,149.03
2023-03-21T05:06:44.843Z,148.77
2023-03-21T05:09:15.590Z,131.97
2023-03-21T05:11:43.777Z,129.87
2023-03-21T05:14:19.999Z,160.83
2023-03-21T05:16:55.980Z,142.63
2023-03-21T05:19:34.596Z,182.53
2023-03-21T05:22:06.505Z,175.47
2023-03-21T05:24:34.383Z,125.23
2023-03-21T05:27:03.543Z,135.87
2023-03-21T05:29:38.866Z,113.30
2023-03-21T05:32:07.700Z,100.37
2023-03-21T05:34:35.048Z,154.27
2023-03-21T05:37:02.473Z,124.67
2023-03-21T05:39:46.008Z,105.87
2023-03-21T05:42:19.766Z,107.13
2023-03-21T05:44:47.909Z,100.53
2023-03-21T05:47:17.088Z,116.57
2023-03-21T05:49:47.163Z,110.03
2023-03-21T05:52:15.473Z,232.43
2023-03-21T05:54:42.855Z,99.47
2023-03-21T05:57:11.510Z,131.33
2023-03-21T06:00:18.468Z,133.03
2023-03-21T06:03:00.600Z,109.33
2023-03-21T06:05:39.353Z,111.53
2023-03-21T06:08:15.696Z,67.17
2023-03-21T06:10:45.344Z,95.50
2023-03-21T06:13:13.720Z,106.40
2023-03-21T06:15:41.356Z,109.17
2023-03-21T06:18:15.213Z,113.63
2023-03-21T06:20:52.015Z,124.70
2023-03-21T06:23:19.206Z,97.20
2023-03-21T06:25:48.884Z,88.80
2023-03-21T06:28:16.155Z,125.47
2023-03-21T06:30:44.230Z,91.70
2023-03-21T06:33:19.502Z,101.90
2023-03-21T06:35:53.170Z,87.13
2023-03-21T06:38:21.060Z,126.47
2023-03-21T06:40:49.598Z,100.50
2023-03-21T06:43:17.698Z,133.10
2023-03-21T06:45:46.047Z,126.33
2023-03-21T06:48:13.391Z,90.63
2023-03-21T06:50:50.237Z,88.90
2023-03-21T06:53:20.910Z,128.43
2023-03-21T06:56:09.644Z,101.63
2023-03-21T06:58:38.148Z,85.10
2023-03-21T07:01:06.952Z,93.20
2023-03-21T07:03:40.188Z,92.30
2023-03-21T07:06:11.690Z,153.13
2023-03-21T07:08:41.102Z,95.20
2023-03-21T07:11:09.197Z,105.90
2023-03-21T07:13:36.886Z,110.50
2023-03-21T07:16:05.920Z,80.73
2023-03-21T07:18:33.347Z,80.10
2023-03-21T07:21:00.694Z,95.00
2023-03-21T07:23:28.683Z,80.37
2023-03-21T07:25:56.551Z,100.70
2023-03-21T07:28:24.327Z,89.90
2023-03-21T07:30:55.257Z,73.57
2023-03-21T07:33:23.148Z,82.80
2023-03-21T07:35:51.554Z,76.10
2023-03-21T07:38:20.279Z,95.97
2023-03-21T07:40:48.331Z,90.33
2023-03-21T07:43:16.887Z,90.93
2023-03-21T07:45:45.611Z,77.63
2023-03-21T07:48:15.076Z,67.80
2023-03-21T07:50:42.324Z,80.00
2023-03-21T07:53:10.180Z,98.30
2023-03-21T07:55:37.729Z,80.10
2023-03-21T07:58:05.401Z,94.50
2023-03-21T08:00:33.097Z,78.77
2023-03-21T08:03:00.960Z,82.53
2023-03-21T08:05:33.487Z,70.30
2023-03-21T08:08:01.491Z,75.67
2023-03-21T08:10:30.740Z,77.90
2023-03-21T08:12:58.259Z,80.23
2023-03-21T08:15:25.560Z,68.10
2023-03-21T08:17:52.760Z,63.53
2023-03-21T08:20:23.320Z,72.70
2023-03-21T08:22:51.151Z,72.03
2023-03-21T08:25:21.606Z,79.77
2023-03-21T08:27:49.929Z,57.27
2023-03-21T08:30:22.635Z,73.33
2023-03-21T08:32:50.929Z,72.90
2023-03-21T08:35:20.280Z,77.70
2023-03-21T08:37:47.687Z,75.53
2023-03-21T08:40:17.605Z,80.73
2023-03-21T08:42:46.402Z,70.13
2023-03-21T08:45:16.134Z,72.97
2023-03-21T08:47:43.596Z,69.70
2023-03-21T08:50:15.494Z,75.63
2023-03-21T08:52:43.348Z,73.03
2023-03-21T08:55:11.610Z,73.23
2023-03-21T08:57:38.936Z,62.83
2023-03-21T09:00:14.412Z,62.13
2023-03-21T09:02:44.292Z,69.50
2023-03-21T09:05:13.249Z,58.17
2023-03-21T09:07:41.572Z,59.23
2023-03-21T09:10:21.100Z,61.40
2023-03-21T09:12:53.831Z,61.07
2023-03-21T09:15:24.267Z,55.60
2023-03-21T09:17:54.078Z,68.27
2023-03-21T09:20:25.974Z,67.03
2023-03-21T09:22:53.601Z,68.87
2023-03-21T09:25:21.314Z,67.67
2023-03-21T09:27:53.650Z,73.17
2023-03-21T09:30:26.246Z,54.53
2023-03-21T09:32:55.519Z,88.60
2023-03-21T09:35:24.737Z,55.73
2023-03-21T09:37:51.914Z,77.50
2023-03-21T09:40:56.300Z,60.77
2023-03-21T09:43:39.637Z,56.60
2023-03-21T09:46:27.406Z,55.23
2023-03-21T09:49:10.017Z,63.43
2023-03-21T09:51:45.778Z,60.73
2023-03-21T09:54:18.941Z,57.27
2023-03-21T09:56:47.627Z,64.20
2023-03-21T09:59:40.079Z,70.20
2023-03-21T10:02:38.126Z,77.17
2023-03-21T10:05:25.651Z,53.57
2023-03-21T10:07:58.633Z,53.17
2023-03-21T10:10:31.290Z,49.60
2023-03-21T10:12:58.512Z,57.93
2023-03-21T10:15:27.224Z,63.07
2023-03-21T10:18:24.695Z,80.83
2023-03-21T10:20:52.588Z,67.50
2023-03-21T10:23:25.511Z,67.80
2023-03-21T10:26:07.934Z,63.73
2023-03-21T10:28:52.470Z,62.67
2023-03-21T10:31:26.169Z,62.53
2023-03-21T10:33:56.149Z,68.23
2023-03-21T10:36:27.041Z,74.37
2023-03-21T10:39:00.846Z,61.00
2023-03-21T10:41:28.334Z,51.40
2023-03-21T10:44:17.820Z,62.17
2023-03-21T10:46:57.048Z,49.27
2023-03-21T10:49:27.064Z,62.73
2023-03-21T10:51:58.353Z,52.37
2023-03-21T10:54:30.807Z,40.83
2023-03-21T10:57:04.815Z,53.50
2023-03-21T10:59:47.091Z,47.70
2023-03-21T11:02:24.198Z,57.40
2023-03-21T11:04:54.527Z,56.20
2023-03-21T11:07:25.388Z,65.67
2023-03-21T11:09:58.144Z,46.53
2023-03-21T11:12:29.798Z,57.90
2023-03-21T11:14:57.886Z,62.60
2023-03-21T11:17:29.392Z,50.80
2023-03-21T11:20:08.969Z,62.27
2023-03-21T11:22:43.322Z,66.27
2023-03-21T11:25:27.846Z,57.83
2023-03-21T11:27:56.141Z,49.73
2023-03-21T11:30:26.711Z,58.57
2023-03-21T11:32:56.827Z,55.77
2023-03-21T11:35:32.055Z,58.37
2023-03-21T11:37:59.718Z,62.57
2023-03-21T11:40:31.885Z,62.27
2023-03-21T11:43:00.512Z,53.30
2023-03-21T11:45:30.397Z,47.43
2023-03-21T11:48:00.187Z,58.90
2023-03-21T11:50:37.303Z,47.97
2023-03-21T11:53:19.348Z,34.13
2023-03-21T11:56:27.999Z,32.37
2023-03-21T11:59:18.815Z,42.93
2023-03-21T12:01:59.699Z,37.80
2023-03-21T12:04:36.788Z,26.57
2023-03-21T12:07:06.965Z,37.03
2023-03-21T12:10:09.731Z,26.90
2023-03-21T12:12:45.894Z,21.77
2023-03-21T12:15:20.702Z,27.13
2023-03-21T12:18:18.856Z,28.10
2023-03-21T12:21:05.070Z,30.53
2023-03-21T12:24:00.353Z,24.53
2023-03-21T12:26:46.081Z,25.43
2023-03-21T12:29:27.282Z,29.17
2023-03-21T12:32:19.499Z,32.17
2023-03-21T12:35:00.384Z,36.33
2023-03-21T12:37:41.611Z,33.73
2023-03-21T12:40:24.040Z,24.07
2023-03-21T12:43:01.536Z,30.53
2023-03-21T12:45:46.548Z,26.90
2023-03-21T12:48:43.144Z,26.37
2023-03-21T12:51:17.997Z,26.77
2023-03-21T12:54:00.597Z,26.50
2023-03-21T12:56:30.461Z,32.87
2023-03-21T12:59:20.553Z,30.90
2023-03-21T13:01:50.400Z,33.17
2023-03-21T13:04:33.995Z,26.53
2023-03-21T13:07:06.593Z,26.97
2023-03-21T13:09:39.978Z,22.60
2023-03-21T13:12:19.468Z,24.00
2023-03-21T13:15:07.892Z,19.63
2023-03-21T13:17:44.092Z,22.90
2023-03-21T13:20:38.625Z,26.70
2023-03-21T13:23:08.361Z,28.60
2023-03-21T13:25:46.879Z,22.93
2023-03-21T13:28:25.581Z,21.07
2023-03-21T13:30:53.236Z,21.03
2023-03-21T13:33:32.989Z,22.73
2023-03-21T13:36:07.111Z,21.93
2023-03-21T13:38:36.331Z,26.87
2023-03-21T13:41:09.014Z,27.90
2023-03-21T13:43:51.607Z,24.47
2023-03-21T13:46:25.316Z,25.70
2023-03-21T13:48:58.588Z,23.90
2023-03-21T13:51:42.026Z,25.73
2023-03-21T13:54:15.566Z,25.47
2023-03-21T13:56:48.200Z,23.50
2023-03-21T13:59:38.835Z,29.23
2023-03-21T14:02:12.587Z,23.03
2023-03-21T14:04:53.865Z,21.97
2023-03-21T14:07:41.337Z,27.43
2023-03-21T14:10:20.104Z,27.33
2023-03-21T14:12:48.855Z,20.30
2023-03-21T14:15:22.808Z,24.37
2023-03-21T14:17:59.412Z,29.10
2023-03-21T14:20:32.792Z,38.23
2023-03-21T14:23:00.165Z,25.33
2023-03-21T14:25:41.047Z,29.87
2023-03-21T14:28:16.821Z,22.70
2023-03-21T14:30:44.750Z,40.03
2023-03-21T14:33:28.971Z,26.00
2023-03-21T14:35:59.629Z,24.60
2023-03-21T14:38:32.214Z,33.67
2023-03-21T14:40:59.445Z,28.67
2023-03-21T14:43:27.971Z,34.67
2023-03-21T14:45:56.744Z,35.20
2023-03-21T14:48:35.492Z,35.67
2023-03-21T14:51:10.077Z,37.83
2023-03-21T14:53:42.189Z,25.87
2023-03-21T14:56:25.585Z,27.90
2023-03-21T14:58:53.861Z,23.50
2023-03-21T15:01:30.979Z,21.93
2023-03-21T15:04:00.589Z,19.00
2023-03-21T15:06:27.928Z,19.20
2023-03-21T15:09:01.012Z,22.60
2023-03-21T15:11:31.887Z,20.13
2023-03-21T15:14:02.122Z,17.87
2023-03-21T15:16:31.202Z,21.50
2023-03-21T15:19:00.336Z,19.23
2023-03-21T15:21:49.599Z,19.30
2023-03-21T15:24:26.968Z,23.67
2023-03-21T15:27:00.640Z,19.47
2023-03-21T15:29:29.241Z,21.73
2023-03-21T15:31:56.747Z,24.63
2023-03-21T15:34:29.124Z,22.53
2023-03-21T15:37:01.091Z,27.33
2023-03-21T15:39:29.581Z,22.03
2023-03-21T15:42:07.140Z,17.27
2023-03-21T15:44:35.402Z,17.67
2023-03-21T15:47:03.019Z,18.27
2023-03-21T15:49:32.295Z,17.30
2023-03-21T15:52:06.820Z,14.50
2023-03-21T15:54:56.050Z,19.37
2023-03-21T15:57:37.913Z,13.63
2023-03-21T16:00:18.200Z,17.30
2023-03-21T16:02:46.121Z,16.03
2023-03-21T16:05:34.166Z,18.33
2023-03-21T16:08:19.671Z,18.53
2023-03-21T16:10:48.748Z,22.27
2023-03-21T16:13:17.371Z,16.23
2023-03-21T16:15:45.819Z,15.77
2023-03-21T16:18:16.165Z,18.73
2023-03-21T16:20:46.022Z,20.53
2023-03-21T16:23:14.810Z,21.07
2023-03-21T16:25:43.813Z,18.80
2023-03-21T16:28:17.610Z,21.33
2023-03-21T16:30:45.009Z,22.87
2023-03-21T16:33:12.901Z,18.00
2023-03-21T16:35:40.336Z,24.13
2023-03-21T16:38:07.656Z,20.20
2023-03-21T16:40:37.845Z,16.63
2023-03-21T16:43:05.626Z,19.97
2023-03-21T16:45:33.135Z,26.97
2023-03-21T16:48:00.867Z,24.50
2023-03-21T16:50:37.110Z,23.17
2023-03-21T16:53:04.591Z,24.67
2023-03-21T16:55:33.842Z,25.40
2023-03-21T16:58:01.270Z,21.37
2023-03-21T17:00:30.756Z,27.33
2023-03-21T17:03:01.627Z,25.33
2023-03-21T17:05:32.683Z,21.07
2023-03-21T17:08:02.298Z,24.13
2023-03-21T17:10:31.872Z,20.13
2023-03-21T17:12:59.418Z,22.83
2023-03-21T17:15:26.926Z,22.33
2023-03-21T17:17:55.587Z,22.30
2023-03-21T17:20:26.065Z,20.27
2023-03-21T17:22:53.425Z,24.50
2023-03-21T17:25:20.990Z,27.73
2023-03-21T17:27:48.851Z,30.13
2023-03-21T17:30:28.317Z,25.20
2023-03-21T17:32:56.267Z,31.63
2023-03-21T17:35:25.140Z,28.83
2023-03-21T17:37:53.464Z,30.13
2023-03-21T17:40:25.128Z,19.60
2023-03-21T17:42:53.068Z,32.90
2023-03-21T17:45:21.736Z,29.80
2023-03-21T17:47:49.657Z,27.63
2023-03-21T17:50:25.933Z,33.40
2023-03-21T17:52:56.427Z,29.13
2023-03-21T17:55:24.498Z,28.30
2023-03-21T17:57:52.172Z,28.03
2023-03-21T18:00:23.672Z,29.70
2023-03-21T18:02:51.516Z,33.30
2023-03-21T18:05:21.192Z,32.27
2023-03-21T18:08:19.138Z,34.60
2023-03-21T18:10:36.957Z,33.70
2023-03-21T18:13:04.516Z,35.67
2023-03-21T18:15:31.932Z,32.17
2023-03-21T18:17:59.151Z,32.63
2023-03-21T18:20:49.942Z,29.60
2023-03-21T18:23:16.092Z,27.40
2023-03-21T18:25:43.563Z,35.37
2023-03-21T18:28:12.453Z,37.77
2023-03-21T18:31:05.264Z,28.63
2023-03-21T18:33:29.921Z,24.27
2023-03-21T18:35:59.376Z,27.43
2023-03-21T18:38:28.242Z,31.20
2023-03-21T18:40:56.195Z,26.53
2023-03-21T18:46:12.652Z,22.57
2023-03-21T18:48:40.512Z,29.53
2023-03-21T18:51:09.504Z,31.00
2023-03-21T18:53:37.854Z,26.40
2023-03-21T18:56:09.942Z,33.47
2023-03-21T18:58:38.570Z,31.20
2023-03-21T19:01:06.376Z,32.87
2023-03-21T19:03:37.010Z,27.40
2023-03-21T19:06:06.352Z,27.73
2023-03-21T19:08:38.240Z,23.57
2023-03-21T19:11:07.091Z,28.37
2023-03-21T19:13:34.806Z,27.90
2023-03-21T19:16:03.068Z,33.30
2023-03-21T19:18:52.097Z,21.50
2023-03-21T19:21:19.683Z,26.23
2023-03-21T19:24:22.919Z,27.40
2023-03-21T19:26:35.260Z,27.17
2023-03-21T19:29:02.709Z,20.30
2023-03-21T19:31:31.033Z,21.50
2023-03-21T19:33:59.415Z,27.20
2023-03-21T19:36:27.234Z,27.70
2023-03-21T19:38:54.532Z,22.90
2023-03-21T19:41:21.920Z,24.40
2023-03-21T19:43:55.036Z,23.37
2023-03-21T19:46:25.315Z,24.33
2023-03-21T19:48:56.488Z,27.30
2023-03-21T19:51:29.686Z,25.23
2023-03-21T19:53:58.973Z,32.10
2023-03-21T19:56:27.855Z,19.63
2023-03-21T19:58:56.162Z,31.33
2023-03-21T20:01:24.938Z,20.90
2023-03-21T20:03:53.373Z,22.33
2023-03-21T20:06:24.238Z,25.17
2023-03-21T20:09:37.617Z,21.17
2023-03-21T20:11:41.544Z,20.10
2023-03-21T20:14:09.419Z,24.30
2023-03-21T20:16:37.365Z,21.90
2023-03-21T20:19:08.681Z,23.30
2023-03-21T20:21:47.640Z,22.53
2023-03-21T20:24:20.016Z,20.70
2023-03-21T20:26:49.366Z,19.43
2023-03-21T20:30:05.728Z,24.70
2023-03-21T20:32:04.610Z,26.70
2023-03-21T20:34:32.961Z,23.73
2023-03-21T20:37:00.872Z,22.60
2023-03-21T20:39:29.889Z,25.03
2023-03-21T20:41:59.421Z,21.70
2023-03-21T20:44:51.760Z,22.13
2023-03-21T20:47:15.659Z,17.00
2023-03-21T20:49:43.016Z,19.13
2023-03-21T20:54:57.671Z,18.80
2023-03-21T20:57:27.018Z,17.90
2023-03-21T20:59:57.495Z,17.73
2023-03-21T21:02:24.887Z,19.43
2023-03-21T21:05:21.890Z,20.33
2023-03-21T21:07:44.040Z,17.57
2023-03-21T21:10:15.124Z,14.97
2023-03-21T21:12:45.166Z,20.30
2023-03-21T21:15:16.532Z,12.83
2023-03-21T21:18:04.663Z,17.80
2023-03-21T21:20:33.523Z,11.03
2023-03-21T21:23:01.197Z,17.03
2023-03-21T21:25:32.068Z,13.03
2023-03-21T21:28:01.519Z,13.77
2023-03-21T21:30:32.473Z,16.40
2023-03-21T21:33:00.700Z,15.03
2023-03-21T21:35:28.369Z,18.67
2023-03-21T21:37:55.957Z,16.27
2023-03-21T21:40:23.279Z,14.10
2023-03-21T21:42:51.198Z,17.60
2023-03-21T21:45:18.905Z,14.23
2023-03-21T21:47:46.796Z,13.87
2023-03-21T21:50:14.247Z,11.33
2023-03-21T21:52:43.687Z,14.77
2023-03-21T21:55:13.021Z,12.50
2023-03-21T21:57:40.853Z,16.20
2023-03-21T22:00:13.420Z,11.80
2023-03-21T22:02:41.775Z,13.23
2023-03-21T22:05:10.429Z,13.07
2023-03-21T22:07:38.929Z,15.20
2023-03-21T22:10:06.997Z,13.20
2023-03-21T22:12:35.084Z,14.90
2023-03-21T22:15:07.516Z,12.43
2023-03-21T22:17:36.158Z,12.10
2023-03-21T22:20:09.273Z,15.03
2023-03-21T22:22:37.299Z,11.10
2023-03-21T22:25:06.633Z,11.13
2023-03-21T22:27:34.002Z,13.30
2023-03-21T22:30:04.683Z,10.73
2023-03-21T22:32:35.188Z,10.63
2023-03-21T22:35:02.553Z,10.17
2023-03-21T22:37:34.281Z,13.87
2023-03-21T22:40:02.298Z,10.73
2023-03-21T22:42:29.475Z,9.60
2023-03-21T22:44:56.806Z,10.23
2023-03-21T22:47:24.608Z,8.90
2023-03-21T22:49:52.140Z,12.67
2023-03-21T22:52:19.370Z,12.93
2023-03-21T22:54:47.493Z,10.97
2023-03-21T22:57:15.985Z,11.07
2023-03-21T22:59:43.159Z,9.33
2023-03-21T23:02:10.778Z,9.27
2023-03-21T23:04:38.455Z,11.63
2023-03-21T23:07:05.808Z,10.40
2023-03-21T23:09:33.743Z,8.00
2023-03-21T23:12:01.063Z,10.60
2023-03-21T23:14:28.512Z,9.77
2023-03-21T23:17:00.006Z,13.90
2023-03-21T23:19:28.723Z,11.97
2023-03-21T23:21:56.810Z,12.60
2023-03-21T23:24:24.317Z,12.40
2023-03-21T23:26:52.009Z,11.43
2023-03-21T23:29:20.058Z,11.37
2023-03-21T23:31:47.397Z,12.80
2023-03-21T23:34:14.780Z,12.43
2023-03-21T23:36:42.224Z,9.97
2023-03-21T23:39:09.780Z,14.30
2023-03-21T23:41:37.138Z,13.67
2023-03-21T23:44:04.911Z,11.77
2023-03-21T23:46:32.222Z,11.33
2023-03-21T23:48:59.491Z,11.13
2023-03-21T23:51:26.751Z,12.50
2023-03-21T23:53:56.431Z,14.40
2023-03-21T23:56:25.974Z,12.73
2023-03-21T23:58:53.596Z,12.37
